createdAt,value
2022-12-08T00:14:56.324Z,3.2
2022-12-08T00:24:56.762Z,3
2022-12-08T00:34:57.278Z,3
2022-12-08T00:54:57.947Z,3.1
2022-12-08T01:15:02.198Z,3.3
2022-12-08T01:25:00.152Z,3.3
2022-12-08T02:05:01.830Z,3.3
2022-12-08T02:15:05.210Z,3.3
2022-12-08T02:25:03.494Z,3.3
2022-12-08T02:45:05.265Z,3.4
2022-12-08T02:55:06.245Z,3.4
2022-12-08T03:05:07.249Z,3.4
2022-12-08T03:15:07.456Z,3.4
2022-12-08T03:25:08.135Z,3.5
2022-12-08T03:35:08.621Z,3.4
2022-12-08T03:45:09.402Z,3.4
2022-12-08T03:55:09.759Z,3.4
2022-12-08T04:05:10.398Z,3.4
2022-12-08T04:15:11.061Z,3.4
2022-12-08T04:25:11.674Z,3.4
2022-12-08T04:45:12.746Z,3.4
2022-12-08T04:55:12.988Z,3.4
2022-12-08T05:05:14.067Z,3.5
2022-12-08T05:15:14.611Z,3.4
2022-12-08T05:35:15.940Z,3.4
2022-12-08T05:45:16.340Z,3.4
2022-12-08T05:55:17.089Z,3.4
2022-12-08T06:05:18.077Z,3.4
2022-12-08T06:15:18.851Z,3.4
2022-12-08T06:25:18.973Z,3.4
2022-12-08T06:35:19.142Z,3.4
2022-12-08T06:55:42.316Z,3.3
2022-12-08T07:05:20.551Z,3.2
2022-12-08T07:35:23.057Z,3.1
2022-12-08T07:45:25.757Z,3.1
2022-12-08T07:55:22.527Z,3.1
2022-12-08T08:05:23.430Z,3.1
2022-12-08T08:15:23.652Z,3
2022-12-08T08:25:24.713Z,3
2022-12-08T08:35:25.629Z,2.9
2022-12-08T08:45:25.925Z,2.8
2022-12-08T08:55:26.658Z,2.8
2022-12-08T09:05:26.997Z,2.7
2022-12-08T09:15:27.866Z,2.5
2022-12-08T09:35:28.416Z,2.6
2022-12-08T09:45:29.274Z,2.6
2022-12-08T09:55:29.697Z,2.7
2022-12-08T10:05:30.083Z,2.8
2022-12-08T10:15:30.628Z,2.9
2022-12-08T10:35:31.079Z,3.3
2022-12-08T10:45:31.986Z,3.4
2022-12-08T10:55:32.176Z,3.5
2022-12-08T11:05:32.622Z,3.6
2022-12-08T11:15:33.112Z,3.6
2022-12-08T11:25:33.678Z,3.7
2022-12-08T11:35:33.869Z,3.6
2022-12-08T11:45:34.432Z,3.6
2022-12-08T11:55:35.448Z,3.6
2022-12-08T12:05:56.937Z,3.7
2022-12-08T12:15:35.970Z,3.7
2022-12-08T12:25:36.636Z,3.6
2022-12-08T12:35:37.525Z,3.6
2022-12-08T12:45:37.993Z,3.6
2022-12-08T12:55:38.401Z,3.6
2022-12-08T13:05:38.985Z,3.6
2022-12-08T13:15:39.252Z,3.6
2022-12-08T13:25:39.558Z,3.6
2022-12-08T13:35:40.068Z,3.6
2022-12-08T13:46:26.484Z,3.6
2022-12-08T14:06:10.834Z,3.5
2022-12-08T14:15:41.960Z,3.5
2022-12-08T14:25:42.365Z,3.5
2022-12-08T14:35:42.879Z,3.5
2022-12-08T14:45:43.432Z,3.4
2022-12-08T15:15:51.316Z,3.1
2022-12-08T15:25:51.456Z,3.1
2022-12-08T15:35:52.259Z,3.1
2022-12-08T15:45:58.858Z,3.1
2022-12-08T15:56:25.510Z,3.1
2022-12-08T16:06:20.377Z,3.1
2022-12-08T16:16:00.159Z,3.1
2022-12-08T16:26:17.559Z,3.2
2022-12-08T16:35:56.712Z,3.2
2022-12-08T17:15:57.451Z,3.1
2022-12-08T17:25:58.154Z,3.1
2022-12-08T17:35:58.149Z,3.1
2022-12-08T17:45:59.099Z,3.1
2022-12-08T18:06:01.007Z,3
2022-12-08T18:16:01.844Z,3
2022-12-08T18:26:01.952Z,3
2022-12-08T18:36:02.588Z,2.9
2022-12-08T18:46:03.090Z,2.8
2022-12-08T18:56:04.108Z,2.7
2022-12-08T19:06:04.345Z,2.7
2022-12-08T19:16:04.956Z,2.7
2022-12-08T19:26:05.178Z,2.6
2022-12-08T19:36:06.066Z,2.6
2022-12-08T19:46:06.854Z,2.7
2022-12-08T19:56:07.821Z,2.7
2022-12-08T20:06:08.428Z,2.6
2022-12-08T20:16:09.276Z,2.5
2022-12-08T20:26:09.822Z,2.5
2022-12-08T20:36:10.469Z,2.4
2022-12-08T20:56:12.077Z,2.2
2022-12-08T21:16:13.778Z,2
2022-12-08T21:26:14.065Z,1.9
2022-12-08T21:36:14.967Z,1.7
2022-12-08T21:46:16.062Z,1.6
2022-12-08T21:56:16.879Z,1.5
2022-12-08T22:06:17.400Z,1.3
2022-12-08T22:26:19.320Z,1.1
2022-12-08T22:36:20.265Z,1
2022-12-08T22:46:21.243Z,1.1
2022-12-08T22:56:21.928Z,1.2
2022-12-08T23:06:22.632Z,1
2022-12-08T23:16:23.382Z,0.9
2022-12-08T23:26:24.296Z,0.9
2022-12-08T23:36:24.353Z,0.9
2022-12-08T23:46:24.705Z,0.9
2022-12-08T23:56:29.971Z,1
